Terminal Aerodrome Forecast
Issued by NWS

Current Version | Previous Version | Graphics & Text | Print | Product List | Glossary On
Versions: 1 2 3 4 5 6 7 8 9 10 11 12 13 14 15 16 17 18 19 20 21 22 23 24 25
000
FTUS41 KPBZ 160403 AAA
TAFMGW
TAF AMD
KMGW 160403Z 1604/1624 15007KT 6SM -SN OVC045
     FM160800 19006KT 3SM -SN OVC015
     FM161200 21005KT 3SM -SN OVC008
     FM161700 24007KT 6SM -SN OVC015
     FM162000 24007KT P6SM OVC025=

USA.gov is the U.S. government's official web portal to all federal, state and local government web resources and services.